sensor_id;sensor_type;location;lat;lon;timestamp;P1;durP1;ratioP1;P2;durP2;ratioP2
38117;SDS011;23928;47.562;7.508;2023-06-14T00:00:07;4.67;;;3.60;;
38117;SDS011;23928;47.562;7.508;2023-06-14T00:02:33;3.43;;;2.97;;
38117;SDS011;23928;47.562;7.508;2023-06-14T00:04:58;5.27;;;3.00;;
38117;SDS011;23928;47.562;7.508;2023-06-14T00:07:33;3.93;;;2.97;;
38117;SDS011;23928;47.562;7.508;2023-06-14T00:10:09;4.20;;;3.10;;
38117;SDS011;23928;47.562;7.508;2023-06-14T00:12:36;3.60;;;3.00;;
38117;SDS011;23928;47.562;7.508;2023-06-14T00:15:03;3.53;;;3.23;;
38117;SDS011;23928;47.562;7.508;2023-06-14T00:17:29;8.87;;;3.20;;
38117;SDS011;23928;47.562;7.508;2023-06-14T00:19:55;4.03;;;3.10;;
38117;SDS011;23928;47.562;7.508;2023-06-14T00:22:22;5.43;;;2.80;;
38117;SDS011;23928;47.562;7.508;2023-06-14T00:24:49;3.77;;;3.00;;
38117;SDS011;23928;47.562;7.508;2023-06-14T00:27:18;4.60;;;3.27;;
38117;SDS011;23928;47.562;7.508;2023-06-14T00:29:43;5.33;;;3.17;;
38117;SDS011;23928;47.562;7.508;2023-06-14T00:32:09;4.83;;;2.90;;
38117;SDS011;23928;47.562;7.508;2023-06-14T00:34:35;4.27;;;2.80;;
38117;SDS011;23928;47.562;7.508;2023-06-14T00:37:00;4.33;;;3.20;;
38117;SDS011;23928;47.562;7.508;2023-06-14T00:39:26;4.10;;;3.13;;
38117;SDS011;23928;47.562;7.508;2023-06-14T00:41:52;7.97;;;3.03;;
38117;SDS011;23928;47.562;7.508;2023-06-14T00:44:17;4.27;;;3.50;;
38117;SDS011;23928;47.562;7.508;2023-06-14T00:46:45;3.73;;;3.37;;
38117;SDS011;23928;47.562;7.508;2023-06-14T00:49:11;3.47;;;3.00;;
38117;SDS011;23928;47.562;7.508;2023-06-14T00:51:38;4.00;;;3.20;;
38117;SDS011;23928;47.562;7.508;2023-06-14T00:54:04;3.63;;;3.27;;
38117;SDS011;23928;47.562;7.508;2023-06-14T00:56:30;4.33;;;3.17;;
38117;SDS011;23928;47.562;7.508;2023-06-14T00:58:56;4.90;;;3.40;;
38117;SDS011;23928;47.562;7.508;2023-06-14T01:01:22;4.33;;;3.37;;
38117;SDS011;23928;47.562;7.508;2023-06-14T01:03:49;4.23;;;3.00;;
38117;SDS011;23928;47.562;7.508;2023-06-14T01:08:49;3.33;;;2.73;;
38117;SDS011;23928;47.562;7.508;2023-06-14T01:11:24;5.57;;;3.27;;
38117;SDS011;23928;47.562;7.508;2023-06-14T01:13:56;4.70;;;3.50;;
38117;SDS011;23928;47.562;7.508;2023-06-14T01:16:24;3.97;;;3.37;;
38117;SDS011;23928;47.562;7.508;2023-06-14T01:18:51;3.37;;;3.07;;
38117;SDS011;23928;47.562;7.508;2023-06-14T01:21:24;5.40;;;3.27;;
38117;SDS011;23928;47.562;7.508;2023-06-14T01:23:51;4.70;;;3.17;;
38117;SDS011;23928;47.562;7.508;2023-06-14T01:26:23;4.83;;;3.20;;
38117;SDS011;23928;47.562;7.508;2023-06-14T01:28:51;5.47;;;3.03;;
38117;SDS011;23928;47.562;7.508;2023-06-14T01:31:23;4.23;;;3.37;;
38117;SDS011;23928;47.562;7.508;2023-06-14T01:33:49;5.90;;;3.17;;
38117;SDS011;23928;47.562;7.508;2023-06-14T01:36:18;4.53;;;3.37;;
38117;SDS011;23928;47.562;7.508;2023-06-14T01:38:44;4.30;;;3.40;;
38117;SDS011;23928;47.562;7.508;2023-06-14T01:41:11;4.37;;;3.03;;
38117;SDS011;23928;47.562;7.508;2023-06-14T01:43:38;4.57;;;3.40;;
38117;SDS011;23928;47.562;7.508;2023-06-14T01:46:04;3.93;;;3.10;;
38117;SDS011;23928;47.562;7.508;2023-06-14T01:48:31;3.53;;;3.23;;
38117;SDS011;23928;47.562;7.508;2023-06-14T01:50:57;4.80;;;3.20;;
38117;SDS011;23928;47.562;7.508;2023-06-14T01:53:22;6.37;;;3.33;;
38117;SDS011;23928;47.562;7.508;2023-06-14T01:55:48;4.37;;;2.83;;
38117;SDS011;23928;47.562;7.508;2023-06-14T01:58:14;4.93;;;3.30;;
38117;SDS011;23928;47.562;7.508;2023-06-14T02:00:41;5.83;;;3.30;;
38117;SDS011;23928;47.562;7.508;2023-06-14T02:03:08;3.67;;;2.93;;
38117;SDS011;23928;47.562;7.508;2023-06-14T02:05:34;4.03;;;2.67;;
38117;SDS011;23928;47.562;7.508;2023-06-14T02:08:00;3.50;;;3.20;;
38117;SDS011;23928;47.562;7.508;2023-06-14T02:10:25;3.43;;;2.93;;
38117;SDS011;23928;47.562;7.508;2023-06-14T02:12:51;3.63;;;2.97;;
38117;SDS011;23928;47.562;7.508;2023-06-14T02:15:17;5.00;;;3.63;;
38117;SDS011;23928;47.562;7.508;2023-06-14T02:17:43;4.43;;;2.93;;
38117;SDS011;23928;47.562;7.508;2023-06-14T02:20:09;4.40;;;3.33;;
38117;SDS011;23928;47.562;7.508;2023-06-14T02:22:35;3.50;;;3.17;;
38117;SDS011;23928;47.562;7.508;2023-06-14T02:25:01;4.10;;;3.53;;
38117;SDS011;23928;47.562;7.508;2023-06-14T02:27:27;5.57;;;3.23;;
38117;SDS011;23928;47.562;7.508;2023-06-14T02:29:52;3.60;;;3.30;;
38117;SDS011;23928;47.562;7.508;2023-06-14T02:32:18;3.53;;;3.03;;
38117;SDS011;23928;47.562;7.508;2023-06-14T02:34:43;4.57;;;3.53;;
38117;SDS011;23928;47.562;7.508;2023-06-14T02:37:09;4.27;;;3.50;;
38117;SDS011;23928;47.562;7.508;2023-06-14T02:39:36;5.60;;;3.60;;
38117;SDS011;23928;47.562;7.508;2023-06-14T02:42:01;4.00;;;3.17;;
38117;SDS011;23928;47.562;7.508;2023-06-14T02:44:27;4.73;;;3.10;;
38117;SDS011;23928;47.562;7.508;2023-06-14T02:46:53;3.93;;;3.20;;
38117;SDS011;23928;47.562;7.508;2023-06-14T02:49:20;5.77;;;3.60;;
38117;SDS011;23928;47.562;7.508;2023-06-14T02:51:46;3.97;;;3.20;;
38117;SDS011;23928;47.562;7.508;2023-06-14T02:54:12;3.70;;;3.30;;
38117;SDS011;23928;47.562;7.508;2023-06-14T02:56:37;4.67;;;3.33;;
38117;SDS011;23928;47.562;7.508;2023-06-14T02:59:03;6.10;;;3.40;;
38117;SDS011;23928;47.562;7.508;2023-06-14T03:01:28;4.83;;;3.50;;
38117;SDS011;23928;47.562;7.508;2023-06-14T03:04:02;5.17;;;3.60;;
38117;SDS011;23928;47.562;7.508;2023-06-14T03:06:31;5.20;;;3.60;;
38117;SDS011;23928;47.562;7.508;2023-06-14T03:08:57;4.03;;;3.50;;
38117;SDS011;23928;47.562;7.508;2023-06-14T03:11:28;6.70;;;3.70;;
38117;SDS011;23928;47.562;7.508;2023-06-14T03:13:54;6.93;;;3.70;;
38117;SDS011;23928;47.562;7.508;2023-06-14T03:16:21;5.17;;;3.53;;
38117;SDS011;23928;47.562;7.508;2023-06-14T03:18:49;4.77;;;4.00;;
38117;SDS011;23928;47.562;7.508;2023-06-14T03:21:16;4.47;;;3.30;;
38117;SDS011;23928;47.562;7.508;2023-06-14T03:23:42;4.37;;;3.63;;
38117;SDS011;23928;47.562;7.508;2023-06-14T03:26:08;4.83;;;3.20;;
38117;SDS011;23928;47.562;7.508;2023-06-14T03:28:34;3.93;;;3.30;;
38117;SDS011;23928;47.562;7.508;2023-06-14T03:30:59;7.17;;;3.13;;
38117;SDS011;23928;47.562;7.508;2023-06-14T03:33:26;6.87;;;3.93;;
38117;SDS011;23928;47.562;7.508;2023-06-14T03:35:52;4.70;;;3.30;;
38117;SDS011;23928;47.562;7.508;2023-06-14T03:38:18;4.43;;;3.70;;
38117;SDS011;23928;47.562;7.508;2023-06-14T03:40:43;3.77;;;3.27;;
38117;SDS011;23928;47.562;7.508;2023-06-14T03:43:09;7.00;;;3.27;;
38117;SDS011;23928;47.562;7.508;2023-06-14T03:45:35;4.87;;;3.33;;
38117;SDS011;23928;47.562;7.508;2023-06-14T03:48:00;5.70;;;3.33;;
38117;SDS011;23928;47.562;7.508;2023-06-14T03:50:26;4.53;;;3.80;;
38117;SDS011;23928;47.562;7.508;2023-06-14T03:52:52;6.67;;;3.20;;
38117;SDS011;23928;47.562;7.508;2023-06-14T03:55:18;4.53;;;3.83;;
38117;SDS011;23928;47.562;7.508;2023-06-14T03:57:44;5.27;;;4.10;;
38117;SDS011;23928;47.562;7.508;2023-06-14T04:00:09;4.53;;;3.40;;
38117;SDS011;23928;47.562;7.508;2023-06-14T04:02:37;3.97;;;3.53;;
38117;SDS011;23928;47.562;7.508;2023-06-14T04:05:02;4.37;;;3.50;;
38117;SDS011;23928;47.562;7.508;2023-06-14T04:07:28;6.70;;;3.67;;
38117;SDS011;23928;47.562;7.508;2023-06-14T04:09:55;4.37;;;3.47;;
38117;SDS011;23928;47.562;7.508;2023-06-14T04:12:20;6.47;;;3.50;;
38117;SDS011;23928;47.562;7.508;2023-06-14T04:14:46;6.43;;;3.87;;
38117;SDS011;23928;47.562;7.508;2023-06-14T04:17:12;4.87;;;3.50;;
38117;SDS011;23928;47.562;7.508;2023-06-14T04:19:37;4.57;;;3.83;;
38117;SDS011;23928;47.562;7.508;2023-06-14T04:22:03;4.23;;;3.40;;
38117;SDS011;23928;47.562;7.508;2023-06-14T04:24:29;4.77;;;3.87;;
38117;SDS011;23928;47.562;7.508;2023-06-14T04:26:57;4.73;;;4.17;;
38117;SDS011;23928;47.562;7.508;2023-06-14T04:29:23;5.07;;;4.03;;
38117;SDS011;23928;47.562;7.508;2023-06-14T04:31:51;6.60;;;4.00;;
38117;SDS011;23928;47.562;7.508;2023-06-14T04:34:19;9.03;;;4.27;;
38117;SDS011;23928;47.562;7.508;2023-06-14T04:36:46;4.57;;;4.13;;
38117;SDS011;23928;47.562;7.508;2023-06-14T04:39:17;6.93;;;4.13;;
38117;SDS011;23928;47.562;7.508;2023-06-14T04:41:43;4.50;;;4.03;;
38117;SDS011;23928;47.562;7.508;2023-06-14T04:44:09;4.47;;;3.47;;
38117;SDS011;23928;47.562;7.508;2023-06-14T04:46:35;5.57;;;3.80;;
38117;SDS011;23928;47.562;7.508;2023-06-14T04:49:14;5.70;;;3.93;;
38117;SDS011;23928;47.562;7.508;2023-06-14T04:51:40;3.53;;;3.17;;
38117;SDS011;23928;47.562;7.508;2023-06-14T04:54:07;5.53;;;3.83;;
38117;SDS011;23928;47.562;7.508;2023-06-14T04:56:35;7.00;;;3.60;;
38117;SDS011;23928;47.562;7.508;2023-06-14T04:59:02;5.27;;;3.90;;
38117;SDS011;23928;47.562;7.508;2023-06-14T05:01:30;5.67;;;3.47;;
38117;SDS011;23928;47.562;7.508;2023-06-14T05:03:57;7.93;;;4.23;;
38117;SDS011;23928;47.562;7.508;2023-06-14T05:06:23;5.07;;;3.50;;
38117;SDS011;23928;47.562;7.508;2023-06-14T05:08:48;3.83;;;3.20;;
38117;SDS011;23928;47.562;7.508;2023-06-14T05:11:14;4.30;;;3.60;;
38117;SDS011;23928;47.562;7.508;2023-06-14T05:13:41;4.60;;;3.70;;
38117;SDS011;23928;47.562;7.508;2023-06-14T05:16:08;4.07;;;3.67;;
38117;SDS011;23928;47.562;7.508;2023-06-14T05:18:34;4.57;;;3.33;;
38117;SDS011;23928;47.562;7.508;2023-06-14T05:21:00;6.43;;;3.40;;
38117;SDS011;23928;47.562;7.508;2023-06-14T05:23:26;5.83;;;4.00;;
38117;SDS011;23928;47.562;7.508;2023-06-14T05:25:52;5.60;;;3.50;;
38117;SDS011;23928;47.562;7.508;2023-06-14T05:28:18;4.63;;;3.93;;
38117;SDS011;23928;47.562;7.508;2023-06-14T05:30:43;7.90;;;4.00;;
38117;SDS011;23928;47.562;7.508;2023-06-14T05:33:09;7.37;;;4.80;;
38117;SDS011;23928;47.562;7.508;2023-06-14T05:35:34;6.50;;;4.93;;
38117;SDS011;23928;47.562;7.508;2023-06-14T05:38:00;8.47;;;5.83;;
38117;SDS011;23928;47.562;7.508;2023-06-14T05:40:26;7.40;;;4.67;;
38117;SDS011;23928;47.562;7.508;2023-06-14T05:42:52;6.37;;;4.37;;
38117;SDS011;23928;47.562;7.508;2023-06-14T05:45:17;9.23;;;5.20;;
38117;SDS011;23928;47.562;7.508;2023-06-14T05:47:43;7.60;;;5.60;;
38117;SDS011;23928;47.562;7.508;2023-06-14T05:50:08;9.83;;;6.07;;
38117;SDS011;23928;47.562;7.508;2023-06-14T05:52:35;7.07;;;4.83;;
38117;SDS011;23928;47.562;7.508;2023-06-14T05:55:01;6.97;;;5.43;;
38117;SDS011;23928;47.562;7.508;2023-06-14T05:57:28;8.40;;;5.73;;
38117;SDS011;23928;47.562;7.508;2023-06-14T05:59:54;7.23;;;5.07;;
38117;SDS011;23928;47.562;7.508;2023-06-14T06:02:19;7.63;;;5.03;;
38117;SDS011;23928;47.562;7.508;2023-06-14T06:04:45;6.60;;;5.10;;
38117;SDS011;23928;47.562;7.508;2023-06-14T06:07:11;8.83;;;5.53;;
38117;SDS011;23928;47.562;7.508;2023-06-14T06:09:36;9.37;;;6.00;;
38117;SDS011;23928;47.562;7.508;2023-06-14T06:12:02;8.03;;;5.17;;
38117;SDS011;23928;47.562;7.508;2023-06-14T06:14:31;8.00;;;5.03;;
38117;SDS011;23928;47.562;7.508;2023-06-14T06:16:56;11.50;;;5.80;;
38117;SDS011;23928;47.562;7.508;2023-06-14T06:19:22;7.57;;;5.03;;
38117;SDS011;23928;47.562;7.508;2023-06-14T06:21:47;8.67;;;5.07;;
38117;SDS011;23928;47.562;7.508;2023-06-14T06:24:13;8.07;;;5.70;;
38117;SDS011;23928;47.562;7.508;2023-06-14T06:26:38;7.47;;;5.30;;
38117;SDS011;23928;47.562;7.508;2023-06-14T06:29:05;6.43;;;5.73;;
38117;SDS011;23928;47.562;7.508;2023-06-14T06:31:31;6.70;;;6.00;;
38117;SDS011;23928;47.562;7.508;2023-06-14T06:33:56;10.03;;;5.47;;
38117;SDS011;23928;47.562;7.508;2023-06-14T06:36:22;8.10;;;5.97;;
38117;SDS011;23928;47.562;7.508;2023-06-14T06:38:48;7.70;;;5.80;;
38117;SDS011;23928;47.562;7.508;2023-06-14T06:41:13;9.77;;;5.70;;
38117;SDS011;23928;47.562;7.508;2023-06-14T06:43:39;9.43;;;6.00;;
38117;SDS011;23928;47.562;7.508;2023-06-14T06:46:05;9.53;;;6.00;;
38117;SDS011;23928;47.562;7.508;2023-06-14T06:48:30;7.07;;;5.77;;
38117;SDS011;23928;47.562;7.508;2023-06-14T06:50:56;9.77;;;6.53;;
38117;SDS011;23928;47.562;7.508;2023-06-14T06:53:22;6.67;;;5.70;;
38117;SDS011;23928;47.562;7.508;2023-06-14T06:55:48;10.63;;;6.07;;
38117;SDS011;23928;47.562;7.508;2023-06-14T06:58:13;10.00;;;6.80;;
38117;SDS011;23928;47.562;7.508;2023-06-14T07:00:39;8.97;;;7.10;;
38117;SDS011;23928;47.562;7.508;2023-06-14T07:03:05;7.10;;;5.90;;
38117;SDS011;23928;47.562;7.508;2023-06-14T07:05:30;9.93;;;6.13;;
38117;SDS011;23928;47.562;7.508;2023-06-14T07:07:57;10.50;;;7.00;;
38117;SDS011;23928;47.562;7.508;2023-06-14T07:10:23;6.57;;;5.87;;
38117;SDS011;23928;47.562;7.508;2023-06-14T07:12:49;11.13;;;6.60;;
38117;SDS011;23928;47.562;7.508;2023-06-14T07:15:17;8.30;;;5.83;;
38117;SDS011;23928;47.562;7.508;2023-06-14T07:17:43;8.67;;;5.97;;
38117;SDS011;23928;47.562;7.508;2023-06-14T07:20:09;10.27;;;6.40;;
38117;SDS011;23928;47.562;7.508;2023-06-14T07:22:38;10.33;;;5.87;;
38117;SDS011;23928;47.562;7.508;2023-06-14T07:25:05;9.50;;;6.37;;
38117;SDS011;23928;47.562;7.508;2023-06-14T07:27:33;6.73;;;5.77;;
38117;SDS011;23928;47.562;7.508;2023-06-14T07:29:59;8.23;;;6.00;;
38117;SDS011;23928;47.562;7.508;2023-06-14T07:32:24;7.17;;;6.00;;
38117;SDS011;23928;47.562;7.508;2023-06-14T07:34:50;6.60;;;5.20;;
38117;SDS011;23928;47.562;7.508;2023-06-14T07:37:15;6.63;;;5.73;;
38117;SDS011;23928;47.562;7.508;2023-06-14T07:39:41;8.57;;;5.93;;
38117;SDS011;23928;47.562;7.508;2023-06-14T07:42:06;8.83;;;5.30;;
38117;SDS011;23928;47.562;7.508;2023-06-14T07:44:32;9.90;;;6.20;;
38117;SDS011;23928;47.562;7.508;2023-06-14T07:46:58;7.70;;;5.47;;
38117;SDS011;23928;47.562;7.508;2023-06-14T07:49:25;7.70;;;5.90;;
38117;SDS011;23928;47.562;7.508;2023-06-14T07:51:51;8.47;;;5.73;;
38117;SDS011;23928;47.562;7.508;2023-06-14T07:54:16;7.97;;;5.80;;
38117;SDS011;23928;47.562;7.508;2023-06-14T07:56:42;8.20;;;5.53;;
38117;SDS011;23928;47.562;7.508;2023-06-14T07:59:08;7.33;;;4.87;;
38117;SDS011;23928;47.562;7.508;2023-06-14T08:01:33;6.63;;;5.10;;
38117;SDS011;23928;47.562;7.508;2023-06-14T08:03:59;7.87;;;5.83;;
38117;SDS011;23928;47.562;7.508;2023-06-14T08:06:26;8.07;;;5.50;;
38117;SDS011;23928;47.562;7.508;2023-06-14T08:08:52;7.23;;;5.20;;
38117;SDS011;23928;47.562;7.508;2023-06-14T08:11:17;6.23;;;5.40;;
38117;SDS011;23928;47.562;7.508;2023-06-14T08:13:43;6.30;;;5.03;;
38117;SDS011;23928;47.562;7.508;2023-06-14T08:16:08;8.83;;;5.30;;
38117;SDS011;23928;47.562;7.508;2023-06-14T08:18:35;8.43;;;5.07;;
38117;SDS011;23928;47.562;7.508;2023-06-14T08:21:01;6.80;;;5.33;;
38117;SDS011;23928;47.562;7.508;2023-06-14T08:23:27;10.40;;;4.67;;
38117;SDS011;23928;47.562;7.508;2023-06-14T08:25:53;5.90;;;4.60;;
38117;SDS011;23928;47.562;7.508;2023-06-14T08:28:19;8.30;;;4.60;;
38117;SDS011;23928;47.562;7.508;2023-06-14T08:30:45;7.63;;;4.60;;
38117;SDS011;23928;47.562;7.508;2023-06-14T08:33:11;7.07;;;4.17;;
38117;SDS011;23928;47.562;7.508;2023-06-14T08:35:36;6.70;;;4.17;;
38117;SDS011;23928;47.562;7.508;2023-06-14T08:38:03;4.30;;;3.87;;
38117;SDS011;23928;47.562;7.508;2023-06-14T08:40:29;6.57;;;3.77;;
38117;SDS011;23928;47.562;7.508;2023-06-14T08:42:55;7.83;;;4.10;;
38117;SDS011;23928;47.562;7.508;2023-06-14T08:45:24;7.70;;;3.43;;
38117;SDS011;23928;47.562;7.508;2023-06-14T08:47:50;6.13;;;4.27;;
38117;SDS011;23928;47.562;7.508;2023-06-14T08:50:22;5.50;;;3.63;;
38117;SDS011;23928;47.562;7.508;2023-06-14T08:52:52;6.33;;;3.53;;
38117;SDS011;23928;47.562;7.508;2023-06-14T08:55:20;5.57;;;3.53;;
38117;SDS011;23928;47.562;7.508;2023-06-14T08:57:50;4.37;;;3.70;;
38117;SDS011;23928;47.562;7.508;2023-06-14T09:00:18;6.13;;;3.80;;
38117;SDS011;23928;47.562;7.508;2023-06-14T09:02:45;8.30;;;3.80;;
38117;SDS011;23928;47.562;7.508;2023-06-14T09:05:12;5.07;;;3.70;;
38117;SDS011;23928;47.562;7.508;2023-06-14T09:07:43;6.87;;;4.00;;
38117;SDS011;23928;47.562;7.508;2023-06-14T09:10:09;5.00;;;3.47;;
38117;SDS011;23928;47.562;7.508;2023-06-14T09:12:36;6.83;;;3.43;;
38117;SDS011;23928;47.562;7.508;2023-06-14T09:15:03;6.10;;;3.70;;
38117;SDS011;23928;47.562;7.508;2023-06-14T09:17:37;5.40;;;3.50;;
38117;SDS011;23928;47.562;7.508;2023-06-14T09:20:04;6.00;;;3.90;;
38117;SDS011;23928;47.562;7.508;2023-06-14T09:22:31;7.60;;;4.50;;
38117;SDS011;23928;47.562;7.508;2023-06-14T09:24:57;6.37;;;4.10;;
38117;SDS011;23928;47.562;7.508;2023-06-14T09:27:25;5.80;;;3.80;;
38117;SDS011;23928;47.562;7.508;2023-06-14T09:29:51;7.27;;;4.30;;
38117;SDS011;23928;47.562;7.508;2023-06-14T09:32:17;6.80;;;3.90;;
38117;SDS011;23928;47.562;7.508;2023-06-14T09:34:43;5.07;;;4.20;;
38117;SDS011;23928;47.562;7.508;2023-06-14T09:37:10;6.30;;;3.50;;
38117;SDS011;23928;47.562;7.508;2023-06-14T09:39:38;6.17;;;3.87;;
38117;SDS011;23928;47.562;7.508;2023-06-14T09:42:18;8.27;;;4.20;;
38117;SDS011;23928;47.562;7.508;2023-06-14T09:44:46;9.27;;;4.00;;
38117;SDS011;23928;47.562;7.508;2023-06-14T09:47:13;7.53;;;3.77;;
38117;SDS011;23928;47.562;7.508;2023-06-14T09:49:40;5.63;;;3.50;;
38117;SDS011;23928;47.562;7.508;2023-06-14T09:52:06;10.00;;;3.63;;
38117;SDS011;23928;47.562;7.508;2023-06-14T09:54:35;11.77;;;4.20;;
38117;SDS011;23928;47.562;7.508;2023-06-14T09:57:07;10.80;;;3.60;;
38117;SDS011;23928;47.562;7.508;2023-06-14T09:59:42;5.33;;;3.10;;
38117;SDS011;23928;47.562;7.508;2023-06-14T10:02:11;5.10;;;3.57;;
38117;SDS011;23928;47.562;7.508;2023-06-14T10:04:42;5.43;;;3.30;;
38117;SDS011;23928;47.562;7.508;2023-06-14T10:07:16;4.90;;;3.60;;
38117;SDS011;23928;47.562;7.508;2023-06-14T10:09:46;4.07;;;3.30;;
38117;SDS011;23928;47.562;7.508;2023-06-14T10:12:17;3.97;;;3.50;;
38117;SDS011;23928;47.562;7.508;2023-06-14T10:14:49;7.57;;;3.77;;
38117;SDS011;23928;47.562;7.508;2023-06-14T10:20:10;3.57;;;3.10;;
38117;SDS011;23928;47.562;7.508;2023-06-14T10:22:47;5.73;;;3.17;;
38117;SDS011;23928;47.562;7.508;2023-06-14T10:25:25;6.97;;;4.07;;
38117;SDS011;23928;47.562;7.508;2023-06-14T10:27:53;3.63;;;3.30;;
38117;SDS011;23928;47.562;7.508;2023-06-14T10:30:26;5.00;;;3.80;;
38117;SDS011;23928;47.562;7.508;2023-06-14T10:33:04;4.00;;;3.60;;
38117;SDS011;23928;47.562;7.508;2023-06-14T10:35:35;3.30;;;3.00;;
38117;SDS011;23928;47.562;7.508;2023-06-14T10:38:11;5.90;;;3.47;;
38117;SDS011;23928;47.562;7.508;2023-06-14T10:40:37;4.67;;;3.20;;
38117;SDS011;23928;47.562;7.508;2023-06-14T10:43:20;4.67;;;3.40;;
38117;SDS011;23928;47.562;7.508;2023-06-14T10:48:41;4.20;;;3.80;;
38117;SDS011;23928;47.562;7.508;2023-06-14T10:51:14;5.80;;;3.57;;
38117;SDS011;23928;47.562;7.508;2023-06-14T10:53:45;5.63;;;3.50;;
38117;SDS011;23928;47.562;7.508;2023-06-14T10:56:30;3.57;;;3.20;;
38117;SDS011;23928;47.562;7.508;2023-06-14T10:58:57;3.50;;;3.07;;
38117;SDS011;23928;47.562;7.508;2023-06-14T11:01:28;5.47;;;3.37;;
38117;SDS011;23928;47.562;7.508;2023-06-14T11:04:08;4.93;;;3.50;;
38117;SDS011;23928;47.562;7.508;2023-06-14T11:06:49;7.47;;;3.67;;
38117;SDS011;23928;47.562;7.508;2023-06-14T11:11:49;4.00;;;3.10;;
38117;SDS011;23928;47.562;7.508;2023-06-14T11:14:18;4.67;;;3.60;;
38117;SDS011;23928;47.562;7.508;2023-06-14T11:16:48;3.97;;;3.57;;
38117;SDS011;23928;47.562;7.508;2023-06-14T11:19:14;3.97;;;3.37;;
38117;SDS011;23928;47.562;7.508;2023-06-14T11:21:42;5.43;;;3.40;;
38117;SDS011;23928;47.562;7.508;2023-06-14T11:24:11;5.87;;;3.40;;
38117;SDS011;23928;47.562;7.508;2023-06-14T11:26:37;6.27;;;3.73;;
38117;SDS011;23928;47.562;7.508;2023-06-14T11:29:03;4.77;;;3.63;;
38117;SDS011;23928;47.562;7.508;2023-06-14T11:31:29;4.83;;;3.50;;
38117;SDS011;23928;47.562;7.508;2023-06-14T11:33:55;5.47;;;3.43;;
38117;SDS011;23928;47.562;7.508;2023-06-14T11:36:22;4.97;;;3.73;;
38117;SDS011;23928;47.562;7.508;2023-06-14T11:38:48;4.40;;;3.57;;
38117;SDS011;23928;47.562;7.508;2023-06-14T11:41:14;8.77;;;4.13;;
38117;SDS011;23928;47.562;7.508;2023-06-14T11:43:40;3.73;;;3.43;;
38117;SDS011;23928;47.562;7.508;2023-06-14T11:46:12;4.30;;;3.53;;
38117;SDS011;23928;47.562;7.508;2023-06-14T11:48:40;3.40;;;3.10;;
38117;SDS011;23928;47.562;7.508;2023-06-14T11:51:07;5.77;;;3.73;;
38117;SDS011;23928;47.562;7.508;2023-06-14T11:53:33;4.17;;;3.27;;
38117;SDS011;23928;47.562;7.508;2023-06-14T11:55:59;4.67;;;3.60;;
38117;SDS011;23928;47.562;7.508;2023-06-14T11:58:25;5.10;;;3.60;;
38117;SDS011;23928;47.562;7.508;2023-06-14T12:00:52;3.80;;;3.40;;
38117;SDS011;23928;47.562;7.508;2023-06-14T12:03:22;4.13;;;3.57;;
38117;SDS011;23928;47.562;7.508;2023-06-14T12:05:50;5.13;;;3.63;;
38117;SDS011;23928;47.562;7.508;2023-06-14T12:08:31;4.70;;;3.17;;
38117;SDS011;23928;47.562;7.508;2023-06-14T12:11:05;3.93;;;3.30;;
38117;SDS011;23928;47.562;7.508;2023-06-14T12:13:33;4.53;;;3.73;;
38117;SDS011;23928;47.562;7.508;2023-06-14T12:15:59;8.50;;;3.73;;
38117;SDS011;23928;47.562;7.508;2023-06-14T12:18:36;4.33;;;3.27;;
38117;SDS011;23928;47.562;7.508;2023-06-14T12:21:03;4.57;;;3.03;;
38117;SDS011;23928;47.562;7.508;2023-06-14T12:23:46;8.10;;;3.67;;
38117;SDS011;23928;47.562;7.508;2023-06-14T12:26:13;4.67;;;3.30;;
38117;SDS011;23928;47.562;7.508;2023-06-14T12:28:40;4.03;;;3.37;;
38117;SDS011;23928;47.562;7.508;2023-06-14T12:31:10;8.43;;;3.60;;
38117;SDS011;23928;47.562;7.508;2023-06-14T12:33:37;5.27;;;3.40;;
38117;SDS011;23928;47.562;7.508;2023-06-14T12:36:04;3.73;;;3.40;;
38117;SDS011;23928;47.562;7.508;2023-06-14T12:38:31;4.87;;;3.70;;
38117;SDS011;23928;47.562;7.508;2023-06-14T12:40:57;4.60;;;3.90;;
38117;SDS011;23928;47.562;7.508;2023-06-14T12:43:23;5.10;;;3.47;;
38117;SDS011;23928;47.562;7.508;2023-06-14T12:45:48;5.57;;;3.97;;
38117;SDS011;23928;47.562;7.508;2023-06-14T12:48:15;8.07;;;3.67;;
38117;SDS011;23928;47.562;7.508;2023-06-14T12:50:41;4.47;;;3.40;;
38117;SDS011;23928;47.562;7.508;2023-06-14T12:53:07;4.97;;;3.70;;
38117;SDS011;23928;47.562;7.508;2023-06-14T12:55:32;4.33;;;3.63;;
38117;SDS011;23928;47.562;7.508;2023-06-14T12:57:58;6.17;;;3.67;;
38117;SDS011;23928;47.562;7.508;2023-06-14T13:00:24;4.43;;;3.67;;
38117;SDS011;23928;47.562;7.508;2023-06-14T13:02:52;4.53;;;3.63;;
38117;SDS011;23928;47.562;7.508;2023-06-14T13:05:18;7.90;;;3.73;;
38117;SDS011;23928;47.562;7.508;2023-06-14T13:07:44;4.97;;;3.23;;
38117;SDS011;23928;47.562;7.508;2023-06-14T13:10:10;3.70;;;3.40;;
38117;SDS011;23928;47.562;7.508;2023-06-14T13:12:35;5.23;;;3.93;;
38117;SDS011;23928;47.562;7.508;2023-06-14T13:15:01;4.40;;;3.40;;
38117;SDS011;23928;47.562;7.508;2023-06-14T13:17:27;3.87;;;3.57;;
38117;SDS011;23928;47.562;7.508;2023-06-14T13:19:53;4.70;;;3.80;;
38117;SDS011;23928;47.562;7.508;2023-06-14T13:22:18;5.43;;;3.43;;
38117;SDS011;23928;47.562;7.508;2023-06-14T13:24:44;4.80;;;3.13;;
38117;SDS011;23928;47.562;7.508;2023-06-14T13:27:10;4.87;;;3.87;;
38117;SDS011;23928;47.562;7.508;2023-06-14T13:29:35;6.37;;;3.70;;
38117;SDS011;23928;47.562;7.508;2023-06-14T13:32:02;4.63;;;3.60;;
38117;SDS011;23928;47.562;7.508;2023-06-14T13:34:28;7.20;;;3.80;;
38117;SDS011;23928;47.562;7.508;2023-06-14T13:36:53;3.73;;;3.23;;
38117;SDS011;23928;47.562;7.508;2023-06-14T13:39:19;6.07;;;3.50;;
38117;SDS011;23928;47.562;7.508;2023-06-14T13:41:45;3.77;;;3.40;;
38117;SDS011;23928;47.562;7.508;2023-06-14T13:44:10;5.57;;;4.17;;
38117;SDS011;23928;47.562;7.508;2023-06-14T13:46:41;3.97;;;3.57;;
38117;SDS011;23928;47.562;7.508;2023-06-14T13:49:08;6.07;;;3.73;;
38117;SDS011;23928;47.562;7.508;2023-06-14T13:51:33;6.80;;;3.60;;
38117;SDS011;23928;47.562;7.508;2023-06-14T13:54:00;5.27;;;3.70;;
38117;SDS011;23928;47.562;7.508;2023-06-14T13:56:26;4.00;;;3.60;;
38117;SDS011;23928;47.562;7.508;2023-06-14T13:58:51;3.93;;;3.50;;
38117;SDS011;23928;47.562;7.508;2023-06-14T14:01:17;5.83;;;3.97;;
38117;SDS011;23928;47.562;7.508;2023-06-14T14:03:44;3.97;;;3.67;;
38117;SDS011;23928;47.562;7.508;2023-06-14T14:06:11;4.17;;;3.77;;
38117;SDS011;23928;47.562;7.508;2023-06-14T14:08:37;5.73;;;3.43;;
38117;SDS011;23928;47.562;7.508;2023-06-14T14:11:03;4.03;;;3.37;;
38117;SDS011;23928;47.562;7.508;2023-06-14T14:13:28;5.23;;;3.63;;
38117;SDS011;23928;47.562;7.508;2023-06-14T14:15:54;4.13;;;3.73;;
38117;SDS011;23928;47.562;7.508;2023-06-14T14:18:20;4.63;;;3.50;;
38117;SDS011;23928;47.562;7.508;2023-06-14T14:20:46;4.67;;;3.57;;
38117;SDS011;23928;47.562;7.508;2023-06-14T14:23:12;4.63;;;3.57;;
38117;SDS011;23928;47.562;7.508;2023-06-14T14:25:38;5.07;;;3.67;;
38117;SDS011;23928;47.562;7.508;2023-06-14T14:28:03;6.03;;;3.57;;
38117;SDS011;23928;47.562;7.508;2023-06-14T14:30:29;5.90;;;4.07;;
38117;SDS011;23928;47.562;7.508;2023-06-14T14:32:54;4.33;;;3.93;;
38117;SDS011;23928;47.562;7.508;2023-06-14T14:35:20;4.13;;;3.37;;
38117;SDS011;23928;47.562;7.508;2023-06-14T14:37:47;4.10;;;3.70;;
38117;SDS011;23928;47.562;7.508;2023-06-14T14:40:13;6.57;;;4.17;;
38117;SDS011;23928;47.562;7.508;2023-06-14T14:42:38;5.40;;;3.63;;
38117;SDS011;23928;47.562;7.508;2023-06-14T14:45:04;4.97;;;3.60;;
38117;SDS011;23928;47.562;7.508;2023-06-14T14:47:30;5.20;;;3.27;;
38117;SDS011;23928;47.562;7.508;2023-06-14T14:49:56;4.37;;;3.80;;
38117;SDS011;23928;47.562;7.508;2023-06-14T14:52:22;5.13;;;3.63;;
38117;SDS011;23928;47.562;7.508;2023-06-14T14:54:47;5.30;;;3.40;;
38117;SDS011;23928;47.562;7.508;2023-06-14T14:57:13;4.57;;;3.57;;